createdAt,value
2023-05-18T00:02:27.454Z,8.80
2023-05-18T00:04:55.630Z,8.80
2023-05-18T00:07:23.651Z,8.90
2023-05-18T00:09:51.687Z,8.70
2023-05-18T00:12:19.740Z,8.70
2023-05-18T00:14:49.160Z,8.60
2023-05-18T00:17:17.164Z,8.90
2023-05-18T00:19:46.806Z,8.60
2023-05-18T00:22:18.215Z,8.60
2023-05-18T00:24:46.838Z,8.60
2023-05-18T00:27:15.311Z,8.80
2023-05-18T00:29:43.427Z,8.60
2023-05-18T00:32:12.921Z,8.60
2023-05-18T00:34:41.003Z,8.60
2023-05-18T00:37:11.853Z,8.50
2023-05-18T00:39:40.126Z,8.50
2023-05-18T00:42:13.286Z,8.40
2023-05-18T00:44:44.302Z,8.40
2023-05-18T00:47:13.988Z,8.40
2023-05-18T00:49:42.444Z,8.40
2023-05-18T00:52:10.552Z,8.40
2023-05-18T00:54:38.634Z,8.50
2023-05-18T00:57:07.390Z,8.50
2023-05-18T00:59:35.837Z,8.50
2023-05-18T01:02:04.192Z,8.50
2023-05-18T01:04:34.094Z,8.50
2023-05-18T01:07:06.509Z,8.50
2023-05-18T01:09:35.060Z,8.60
2023-05-18T01:12:07.210Z,8.60
2023-05-18T01:14:38.022Z,8.60
2023-05-18T01:17:10.450Z,8.60
2023-05-18T01:19:59.361Z,8.60
2023-05-18T01:22:34.391Z,8.60
2023-05-18T01:25:06.688Z,8.70
2023-05-18T01:27:37.635Z,8.70
2023-05-18T01:30:06.155Z,8.70
2023-05-18T01:32:40.306Z,8.70
2023-05-18T01:35:08.585Z,8.70
2023-05-18T01:37:36.548Z,8.60
2023-05-18T01:40:05.657Z,8.60
2023-05-18T01:42:35.708Z,8.60
2023-05-18T01:45:08.988Z,8.50
2023-05-18T01:47:38.422Z,8.50
2023-05-18T01:50:10.108Z,8.50
2023-05-18T01:52:40.985Z,8.50
2023-05-18T01:55:10.704Z,8.40
2023-05-18T01:57:39.942Z,8.40
2023-05-18T02:00:10.313Z,8.40
2023-05-18T02:02:38.477Z,8.40
2023-05-18T02:05:07.694Z,8.30
2023-05-18T02:07:35.872Z,8.40
2023-05-18T02:10:03.912Z,8.40
2023-05-18T02:12:31.968Z,8.30
2023-05-18T02:15:01.095Z,8.30
2023-05-18T02:17:30.484Z,8.30
2023-05-18T02:19:58.479Z,8.30
2023-05-18T02:22:26.485Z,8.30
2023-05-18T02:24:54.955Z,8.30
2023-05-18T02:27:22.959Z,8.20
2023-05-18T02:29:51.766Z,8.20
2023-05-18T02:32:19.753Z,8.20
2023-05-18T02:34:52.801Z,8.20
2023-05-18T02:37:23.085Z,8.20
2023-05-18T02:39:51.280Z,8.20
2023-05-18T02:42:19.380Z,8.20
2023-05-18T02:44:47.352Z,8.20
2023-05-18T02:47:15.415Z,8.20
2023-05-18T02:49:43.509Z,8.20
2023-05-18T02:52:12.980Z,8.20
2023-05-18T02:54:41.001Z,8.20
2023-05-18T02:57:09.118Z,8.20
2023-05-18T02:59:37.563Z,8.20
2023-05-18T03:02:05.799Z,8.20
2023-05-18T03:04:33.849Z,8.20
2023-05-18T03:07:02.894Z,8.20
2023-05-18T03:09:32.365Z,8.20
2023-05-18T03:12:01.241Z,8.20
2023-05-18T03:14:29.282Z,8.20
2023-05-18T03:16:57.919Z,8.20
2023-05-18T03:19:27.123Z,8.20
2023-05-18T03:21:55.183Z,8.20
2023-05-18T03:24:26.233Z,8.20
2023-05-18T03:26:56.996Z,8.20
2023-05-18T03:29:25.023Z,8.20
2023-05-18T03:31:53.180Z,8.20
2023-05-18T03:34:21.474Z,8.20
2023-05-18T03:36:51.730Z,8.20
2023-05-18T03:39:19.708Z,8.20
2023-05-18T03:41:53.981Z,8.20
2023-05-18T03:44:23.357Z,8.20
2023-05-18T03:46:51.478Z,8.20
2023-05-18T03:49:19.512Z,8.20
2023-05-18T03:51:47.534Z,8.10
2023-05-18T03:54:15.568Z,8.10
2023-05-18T03:56:43.575Z,8.10
2023-05-18T03:59:11.673Z,8.20
2023-05-18T04:01:42.219Z,8.20
2023-05-18T04:04:10.375Z,8.20
2023-05-18T04:06:40.156Z,8.20
2023-05-18T04:09:08.288Z,8.20
2023-05-18T04:11:36.328Z,8.20
2023-05-18T04:14:04.535Z,8.10
2023-05-18T04:16:32.698Z,8.10
2023-05-18T04:19:05.634Z,8.10
2023-05-18T04:21:36.429Z,8.10
2023-05-18T04:24:05.311Z,8.10
2023-05-18T04:26:34.650Z,8.20
2023-05-18T04:29:02.813Z,8.20
2023-05-18T04:31:30.934Z,8.20
2023-05-18T04:34:00.579Z,8.20
2023-05-18T04:36:30.920Z,8.10
2023-05-18T04:38:59.836Z,8.20
2023-05-18T04:41:27.853Z,8.30
2023-05-18T04:43:55.933Z,8.30
2023-05-18T04:46:23.969Z,8.40
2023-05-18T04:48:53.098Z,8.40
2023-05-18T04:51:21.528Z,8.50
2023-05-18T04:53:51.213Z,8.50
2023-05-18T04:56:20.597Z,8.50
2023-05-18T04:58:49.159Z,8.50
2023-05-18T05:01:17.442Z,8.60
2023-05-18T05:03:46.155Z,8.60
2023-05-18T05:06:14.273Z,8.60
2023-05-18T05:08:42.267Z,8.60
2023-05-18T05:11:11.602Z,8.60
2023-05-18T05:13:39.668Z,8.60
2023-05-18T05:16:07.967Z,8.70
2023-05-18T05:18:36.111Z,8.70
2023-05-18T05:21:04.457Z,8.80
2023-05-18T05:23:32.496Z,8.80
2023-05-18T05:26:00.653Z,8.80
2023-05-18T05:28:30.047Z,8.80
2023-05-18T05:30:58.087Z,9.40
2023-05-18T05:33:26.080Z,9.00
2023-05-18T05:35:54.260Z,8.90
2023-05-18T05:38:22.432Z,9.00
2023-05-18T05:40:50.640Z,9.00
2023-05-18T05:43:18.606Z,9.10
2023-05-18T05:45:48.404Z,9.10
2023-05-18T05:48:16.785Z,9.10
2023-05-18T05:50:44.879Z,9.20
2023-05-18T05:53:12.962Z,9.20
2023-05-18T05:55:42.161Z,9.20
2023-05-18T05:58:10.334Z,9.20
2023-05-18T06:00:38.400Z,9.30
2023-05-18T06:03:08.380Z,9.30
2023-05-18T06:05:36.497Z,9.30
2023-05-18T06:08:04.882Z,9.30
2023-05-18T06:10:32.880Z,9.30
2023-05-18T06:13:01.033Z,9.40
2023-05-18T06:15:29.295Z,9.40
2023-05-18T06:17:57.714Z,9.40
2023-05-18T06:20:27.428Z,9.50
2023-05-18T06:22:55.535Z,9.50
2023-05-18T06:25:24.291Z,9.60
2023-05-18T06:27:52.415Z,9.60
2023-05-18T06:30:21.019Z,9.60
2023-05-18T06:32:49.072Z,9.70
2023-05-18T06:35:17.176Z,9.70
2023-05-18T06:37:47.054Z,9.70
2023-05-18T06:40:15.367Z,9.80
2023-05-18T06:42:43.374Z,9.80
2023-05-18T06:45:12.005Z,9.90
2023-05-18T06:47:40.035Z,9.90
2023-05-18T06:50:08.416Z,9.90
2023-05-18T06:52:36.582Z,9.80
2023-05-18T06:55:07.648Z,9.90
2023-05-18T06:57:35.690Z,9.90
2023-05-18T07:00:07.168Z,10.00
2023-05-18T07:02:35.373Z,10.00
2023-05-18T07:05:05.558Z,10.00
2023-05-18T07:07:33.624Z,10.10
2023-05-18T07:10:01.713Z,10.10
2023-05-18T07:12:31.533Z,10.20
2023-05-18T07:14:59.578Z,10.20
2023-05-18T07:17:27.618Z,10.20
2023-05-18T07:19:55.644Z,10.20
2023-05-18T07:22:23.645Z,10.20
2023-05-18T07:24:51.705Z,10.30
2023-05-18T07:27:19.744Z,10.30
2023-05-18T07:29:49.090Z,10.30
2023-05-18T07:32:19.932Z,10.40
2023-05-18T07:34:47.922Z,10.40
2023-05-18T07:37:15.989Z,10.50
2023-05-18T07:39:43.980Z,10.60
2023-05-18T07:42:12.326Z,10.60
2023-05-18T07:44:40.365Z,10.70
2023-05-18T07:47:09.827Z,10.80
2023-05-18T07:49:39.062Z,10.80
2023-05-18T07:52:08.368Z,10.80
2023-05-18T07:54:36.476Z,10.90
2023-05-18T07:57:05.554Z,10.90
2023-05-18T07:59:33.596Z,10.90
2023-05-18T08:02:02.431Z,10.90
2023-05-18T08:04:31.917Z,11.00
2023-05-18T08:07:00.761Z,11.10
2023-05-18T08:09:28.825Z,11.00
2023-05-18T08:11:56.804Z,11.10
2023-05-18T08:14:24.818Z,11.00
2023-05-18T08:16:52.955Z,11.10
2023-05-18T08:19:21.257Z,11.10
2023-05-18T08:21:50.790Z,11.10
2023-05-18T08:24:18.812Z,11.20
2023-05-18T08:26:46.897Z,11.30
2023-05-18T08:29:15.022Z,11.30
2023-05-18T08:31:43.130Z,11.40
2023-05-18T08:34:11.495Z,11.30
2023-05-18T08:36:40.951Z,11.30
2023-05-18T08:39:10.970Z,11.20
2023-05-18T08:41:40.371Z,11.10
2023-05-18T08:44:13.319Z,11.00
2023-05-18T08:46:42.627Z,11.10
2023-05-18T08:49:11.390Z,11.20
2023-05-18T08:51:41.009Z,11.30
2023-05-18T08:54:12.463Z,11.20
2023-05-18T08:56:40.839Z,11.30
2023-05-18T08:59:10.041Z,11.40
2023-05-18T09:01:38.355Z,11.40
2023-05-18T09:04:06.832Z,11.40
2023-05-18T09:06:35.867Z,11.40
2023-05-18T09:09:06.583Z,11.50
2023-05-18T09:11:36.435Z,11.60
2023-05-18T09:14:04.627Z,11.60
2023-05-18T09:16:33.279Z,11.80
2023-05-18T09:19:01.394Z,11.90
2023-05-18T09:21:31.337Z,11.90
2023-05-18T09:24:00.239Z,11.90
2023-05-18T09:26:28.370Z,11.90
2023-05-18T09:28:59.430Z,12.10
2023-05-18T09:31:27.682Z,11.80
2023-05-18T09:33:56.020Z,11.70
2023-05-18T09:38:52.850Z,11.60
2023-05-18T09:41:21.856Z,11.60
2023-05-18T09:43:50.752Z,11.60
2023-05-18T09:46:21.014Z,11.60
2023-05-18T09:48:52.357Z,11.60
2023-05-18T09:51:21.989Z,11.70
2023-05-18T09:53:50.438Z,11.70
2023-05-18T09:56:18.803Z,11.70
2023-05-18T09:58:46.995Z,11.80
2023-05-18T10:01:15.063Z,11.90
2023-05-18T10:03:45.717Z,11.90
2023-05-18T10:06:13.978Z,11.90
2023-05-18T10:08:42.308Z,11.90
2023-05-18T10:11:10.368Z,12.00
2023-05-18T10:13:38.412Z,12.10
2023-05-18T10:16:08.644Z,12.20
2023-05-18T10:18:37.421Z,12.20
2023-05-18T10:21:08.163Z,12.20
2023-05-18T10:23:37.036Z,12.40
2023-05-18T10:26:06.687Z,12.40
2023-05-18T10:28:42.300Z,12.60
2023-05-18T10:31:10.824Z,12.60
2023-05-18T10:33:39.058Z,12.80
2023-05-18T10:36:10.163Z,12.80
2023-05-18T10:38:39.296Z,12.90
2023-05-18T10:41:07.501Z,12.90
2023-05-18T10:43:36.892Z,12.90
2023-05-18T10:46:07.355Z,13.10
2023-05-18T10:48:38.745Z,13.00
2023-05-18T10:51:08.768Z,13.10
2023-05-18T10:53:37.665Z,13.10
2023-05-18T10:56:07.855Z,13.10
2023-05-18T10:58:36.609Z,13.20
2023-05-18T11:01:06.607Z,13.20
2023-05-18T11:03:34.780Z,13.20
2023-05-18T11:06:08.055Z,13.30
2023-05-18T11:08:43.510Z,13.40
2023-05-18T11:11:11.456Z,13.40
2023-05-18T11:13:44.297Z,13.40
2023-05-18T11:16:12.344Z,13.50
2023-05-18T11:18:50.871Z,13.60
2023-05-18T11:21:19.844Z,13.50
2023-05-18T11:24:02.620Z,13.50
2023-05-18T11:26:31.923Z,13.70
2023-05-18T11:28:59.833Z,13.50
2023-05-18T11:31:44.170Z,12.30
2023-05-18T11:34:30.636Z,13.60
2023-05-18T11:36:58.643Z,13.50
2023-05-18T11:39:26.525Z,13.80
2023-05-18T11:42:02.159Z,13.90
2023-05-18T11:44:30.306Z,14.20
2023-05-18T11:49:27.190Z,14.10
2023-05-18T11:52:13.161Z,14.60
2023-05-18T11:54:43.532Z,14.60
2023-05-18T11:57:15.288Z,14.70
2023-05-18T11:59:43.953Z,14.80
2023-05-18T12:02:13.140Z,14.90
2023-05-18T12:04:44.636Z,14.90
2023-05-18T12:07:13.086Z,15.10
2023-05-18T12:09:45.657Z,15.10
2023-05-18T12:12:17.251Z,15.40
2023-05-18T12:14:46.134Z,15.60
2023-05-18T12:17:14.126Z,15.60
2023-05-18T12:19:45.556Z,15.70
2023-05-18T12:22:13.494Z,15.80
2023-05-18T12:24:41.902Z,16.10
2023-05-18T12:27:10.198Z,16.10
2023-05-18T12:29:40.706Z,15.90
2023-05-18T12:32:10.598Z,16.00
2023-05-18T12:34:39.058Z,16.20
2023-05-18T12:37:07.474Z,16.30
2023-05-18T12:39:36.563Z,16.40
2023-05-18T12:42:11.592Z,16.20
2023-05-18T12:44:42.138Z,16.20
2023-05-18T12:47:11.387Z,16.40
2023-05-18T12:49:39.861Z,16.60
2023-05-18T12:52:12.261Z,16.90
2023-05-18T12:54:58.557Z,17.10
2023-05-18T12:57:27.151Z,17.30
2023-05-18T12:59:56.733Z,17.40
2023-05-18T13:02:32.065Z,17.50
2023-05-18T13:05:03.939Z,17.60
2023-05-18T13:07:32.058Z,17.90
2023-05-18T13:10:03.543Z,18.10
2023-05-18T13:12:39.612Z,18.20
2023-05-18T13:15:12.814Z,18.20
2023-05-18T13:17:41.128Z,18.40
2023-05-18T13:20:15.512Z,18.50
2023-05-18T13:22:43.996Z,18.60
2023-05-18T13:25:12.004Z,18.70
2023-05-18T13:27:39.975Z,18.70
2023-05-18T13:30:08.728Z,18.60
2023-05-18T13:32:38.201Z,18.80
2023-05-18T13:35:06.776Z,18.70
2023-05-18T13:37:34.704Z,18.70
2023-05-18T13:40:03.000Z,18.70
2023-05-18T13:42:30.952Z,18.60
2023-05-18T13:44:58.881Z,18.90
2023-05-18T13:47:26.881Z,19.00
2023-05-18T13:49:56.366Z,19.00
2023-05-18T13:52:24.309Z,19.10
2023-05-18T13:54:52.251Z,19.10
2023-05-18T13:57:21.045Z,18.80
2023-05-18T13:59:48.984Z,18.90
2023-05-18T14:02:17.036Z,19.00
2023-05-18T14:04:45.022Z,19.10
2023-05-18T14:07:14.312Z,19.50
2023-05-18T14:09:42.294Z,19.60
2023-05-18T14:12:12.849Z,19.90
2023-05-18T14:14:43.132Z,19.90
2023-05-18T14:17:12.612Z,19.80
2023-05-18T14:19:40.763Z,20.20
2023-05-18T14:22:08.684Z,20.80
2023-05-18T14:24:37.956Z,21.30
2023-05-18T14:27:05.920Z,21.70
2023-05-18T14:29:35.896Z,22.00
2023-05-18T14:32:04.177Z,22.20
2023-05-18T14:34:32.203Z,22.60
2023-05-18T14:37:00.207Z,22.80
2023-05-18T14:39:28.117Z,22.60
2023-05-18T14:41:57.408Z,22.60
2023-05-18T14:44:25.500Z,22.70
2023-05-18T14:46:53.729Z,22.60
2023-05-18T14:49:21.825Z,22.50
2023-05-18T14:51:49.808Z,22.80
2023-05-18T14:54:19.004Z,22.50
2023-05-18T14:56:47.027Z,23.20
2023-05-18T14:59:16.327Z,23.80
2023-05-18T15:01:44.387Z,23.70
2023-05-18T15:04:14.665Z,23.50
2023-05-18T15:06:42.681Z,23.70
2023-05-18T15:09:10.714Z,23.70
2023-05-18T15:11:41.427Z,23.70
2023-05-18T15:14:09.360Z,24.00
2023-05-18T15:16:39.259Z,24.30
2023-05-18T15:19:07.304Z,24.50
2023-05-18T15:21:35.264Z,24.10
2023-05-18T15:24:03.196Z,23.30
2023-05-18T15:26:31.268Z,23.50
2023-05-18T15:28:59.162Z,23.40
2023-05-18T15:31:27.146Z,23.20
2023-05-18T15:33:56.460Z,23.00
2023-05-18T15:36:24.885Z,23.20
2023-05-18T15:38:52.816Z,23.10
2023-05-18T15:41:22.013Z,23.00
2023-05-18T15:43:49.974Z,23.20
2023-05-18T15:46:17.947Z,23.50
2023-05-18T15:48:45.904Z,24.10
2023-05-18T15:51:15.209Z,24.30
2023-05-18T15:53:43.267Z,24.70
2023-05-18T15:56:11.238Z,24.90
2023-05-18T15:58:39.163Z,24.70
2023-05-18T16:01:07.252Z,24.50
2023-05-18T16:03:35.338Z,24.20
2023-05-18T16:06:03.452Z,23.60
2023-05-18T16:08:32.755Z,23.40
2023-05-18T16:11:02.202Z,23.10
2023-05-18T16:13:30.110Z,22.30
2023-05-18T16:15:58.081Z,21.60
2023-05-18T16:18:25.987Z,21.40
2023-05-18T16:20:54.184Z,21.20
2023-05-18T16:23:22.146Z,20.60
2023-05-18T16:25:51.428Z,20.60
2023-05-18T16:28:19.430Z,20.60
2023-05-18T16:30:47.349Z,20.10
2023-05-18T16:33:16.814Z,19.90
2023-05-18T16:35:44.936Z,19.50
2023-05-18T16:38:13.429Z,19.20
2023-05-18T16:40:41.404Z,19.40
2023-05-18T16:43:10.750Z,19.30
2023-05-18T16:45:38.676Z,19.20
2023-05-18T16:48:06.938Z,18.80
2023-05-18T16:50:34.957Z,18.70
2023-05-18T16:53:02.943Z,18.40
2023-05-18T16:55:31.025Z,18.20
2023-05-18T16:57:58.958Z,18.20
2023-05-18T17:00:28.350Z,18.30
2023-05-18T17:02:56.576Z,18.40
2023-05-18T17:05:24.576Z,18.50
2023-05-18T17:07:53.217Z,18.60
2023-05-18T17:10:21.164Z,18.70
2023-05-18T17:12:49.204Z,18.50
2023-05-18T17:15:17.164Z,18.40
2023-05-18T17:17:46.465Z,18.40
2023-05-18T17:20:14.549Z,18.40
2023-05-18T17:22:42.493Z,18.30
2023-05-18T17:25:10.471Z,18.10
2023-05-18T17:27:38.435Z,18.00
2023-05-18T17:30:07.180Z,17.90
2023-05-18T17:32:35.191Z,17.80
2023-05-18T17:35:05.542Z,17.60
2023-05-18T17:37:33.525Z,17.50
2023-05-18T17:40:01.662Z,17.40
2023-05-18T17:42:29.591Z,17.40
2023-05-18T17:44:57.515Z,17.30
2023-05-18T17:47:25.589Z,17.20
2023-05-18T17:49:53.571Z,17.20
2023-05-18T17:52:22.850Z,17.10
2023-05-18T17:54:52.255Z,17.10
2023-05-18T17:57:20.218Z,17.00
2023-05-18T17:59:48.165Z,16.80
2023-05-18T18:02:16.161Z,16.80
2023-05-18T18:04:44.148Z,16.60
2023-05-18T18:07:12.153Z,16.50
2023-05-18T18:09:41.560Z,16.30
2023-05-18T18:12:09.965Z,16.30
2023-05-18T18:14:37.994Z,16.10
2023-05-18T18:17:06.275Z,16.00
2023-05-18T18:19:34.413Z,15.90
2023-05-18T18:22:02.447Z,16.00
2023-05-18T18:24:30.450Z,15.90
2023-05-18T18:26:59.841Z,15.80
2023-05-18T18:29:29.747Z,15.80
2023-05-18T18:32:11.641Z,15.70
2023-05-18T18:34:39.678Z,15.60
2023-05-18T18:37:07.750Z,15.50
2023-05-18T18:39:35.788Z,15.40
2023-05-18T18:42:05.658Z,15.30
2023-05-18T18:44:33.646Z,15.30
2023-05-18T18:47:01.702Z,15.20
2023-05-18T18:49:29.681Z,15.20
2023-05-18T18:51:58.793Z,15.20
2023-05-18T18:54:27.177Z,15.10
2023-05-18T18:56:55.200Z,15.00
2023-05-18T18:59:24.636Z,14.90
2023-05-18T19:01:52.688Z,14.80
2023-05-18T19:04:21.127Z,14.80
2023-05-18T19:06:49.128Z,14.60
2023-05-18T19:09:17.118Z,14.60
2023-05-18T19:11:45.258Z,14.50
2023-05-18T19:14:13.348Z,14.40
2023-05-18T19:16:42.884Z,14.30
2023-05-18T19:19:11.210Z,14.30
2023-05-18T19:21:39.380Z,14.20
2023-05-18T19:24:08.269Z,14.20
2023-05-18T19:26:36.262Z,14.10
2023-05-18T19:29:04.333Z,14.00
2023-05-18T19:31:34.422Z,14.00
2023-05-18T19:34:04.026Z,13.90
2023-05-18T19:36:32.199Z,13.80
2023-05-18T19:39:00.174Z,13.70
2023-05-18T19:41:28.238Z,13.70
2023-05-18T19:43:56.344Z,13.70
2023-05-18T19:46:24.390Z,13.40
2023-05-18T19:48:53.644Z,13.60
2023-05-18T19:51:25.098Z,13.50
2023-05-18T19:53:53.153Z,13.40
2023-05-18T19:56:22.370Z,13.40
2023-05-18T19:58:51.644Z,13.30
2023-05-18T20:01:20.316Z,13.20
2023-05-18T20:03:49.799Z,13.20
2023-05-18T20:06:17.836Z,13.10
2023-05-18T20:08:47.909Z,13.10
2023-05-18T20:11:16.177Z,13.10
2023-05-18T20:13:45.888Z,13.00
2023-05-18T20:16:14.476Z,12.90
2023-05-18T20:18:43.287Z,12.90
2023-05-18T20:21:11.456Z,12.80
2023-05-18T20:23:39.529Z,12.80
2023-05-18T20:26:08.896Z,12.70
2023-05-18T20:28:36.957Z,12.70
2023-05-18T20:31:05.093Z,12.60
2023-05-18T20:33:34.236Z,12.60
2023-05-18T20:36:05.957Z,12.60
2023-05-18T20:38:33.976Z,12.50
2023-05-18T20:41:02.128Z,12.50
2023-05-18T20:43:31.875Z,12.50
2023-05-18T20:46:00.187Z,12.40
2023-05-18T20:48:28.945Z,12.50
2023-05-18T20:50:57.052Z,12.30
2023-05-18T20:53:26.096Z,12.30
2023-05-18T20:55:54.663Z,12.30
2023-05-18T20:58:22.890Z,12.30
2023-05-18T21:00:55.448Z,12.30
2023-05-18T21:03:23.508Z,12.30
2023-05-18T21:05:51.801Z,12.30
2023-05-18T21:08:19.784Z,12.20
2023-05-18T21:10:47.795Z,12.20
2023-05-18T21:13:15.880Z,12.20
2023-05-18T21:15:44.106Z,12.10
2023-05-18T21:18:13.770Z,12.10
2023-05-18T21:20:41.822Z,12.10
2023-05-18T21:23:09.817Z,12.10
2023-05-18T21:25:37.908Z,12.10
2023-05-18T21:28:06.095Z,12.00
2023-05-18T21:30:34.249Z,12.00
2023-05-18T21:33:02.695Z,12.00
2023-05-18T21:35:32.420Z,11.90
2023-05-18T21:38:00.723Z,12.00
2023-05-18T21:40:28.707Z,12.00
2023-05-18T21:42:57.781Z,11.90
2023-05-18T21:45:26.234Z,11.90
2023-05-18T21:47:54.351Z,11.90
2023-05-18T21:50:22.405Z,11.90
2023-05-18T21:52:52.049Z,11.80
2023-05-18T21:55:20.111Z,11.80
2023-05-18T21:57:48.157Z,11.80
2023-05-18T22:00:18.001Z,11.80
2023-05-18T22:02:46.232Z,11.80
2023-05-18T22:05:14.311Z,11.80
2023-05-18T22:07:42.398Z,11.80
2023-05-18T22:10:12.587Z,11.90
2023-05-18T22:12:43.322Z,11.70
2023-05-18T22:15:11.640Z,11.70
2023-05-18T22:17:40.237Z,11.70
2023-05-18T22:20:17.251Z,11.70
2023-05-18T22:22:45.289Z,11.70
2023-05-18T22:25:14.828Z,11.70
2023-05-18T22:27:42.861Z,11.70
2023-05-18T22:30:11.356Z,11.70
2023-05-18T22:32:39.560Z,11.60
2023-05-18T22:35:08.435Z,11.60
2023-05-18T22:37:36.500Z,11.60
2023-05-18T22:40:06.390Z,11.60
2023-05-18T22:42:35.902Z,11.50
2023-05-18T22:45:03.947Z,11.50
2023-05-18T22:47:33.793Z,11.50
2023-05-18T22:50:01.955Z,11.50
2023-05-18T22:52:29.996Z,11.50
2023-05-18T22:54:58.015Z,11.40
2023-05-18T22:57:26.116Z,10.30
2023-05-18T22:59:55.550Z,11.40
2023-05-18T23:02:23.566Z,11.40
2023-05-18T23:04:51.622Z,11.40
2023-05-18T23:07:19.982Z,11.30
2023-05-18T23:09:47.964Z,11.30
2023-05-18T23:12:15.972Z,11.30
2023-05-18T23:14:44.700Z,11.30
2023-05-18T23:17:14.051Z,11.20
2023-05-18T23:19:43.750Z,11.30
2023-05-18T23:22:11.742Z,11.20
2023-05-18T23:24:39.827Z,11.20
2023-05-18T23:27:07.850Z,11.20
2023-05-18T23:29:35.875Z,11.20
2023-05-18T23:32:03.953Z,11.20
2023-05-18T23:34:33.819Z,11.10
2023-05-18T23:37:03.729Z,11.10
2023-05-18T23:39:32.797Z,11.10
2023-05-18T23:42:01.677Z,11.00
2023-05-18T23:44:30.731Z,11.00
2023-05-18T23:46:59.039Z,11.00
2023-05-18T23:49:27.491Z,11.00
2023-05-18T23:51:59.001Z,11.00
2023-05-18T23:54:27.289Z,10.90
2023-05-18T23:56:55.830Z,10.90
2023-05-18T23:59:24.104Z,10.90
